Terminal Aerodrome Forecast
Issued by NWS Amarillo, TX

Home | Current Version | Previous Version | Text Only | Print | Product List | Glossary On
Versions: 1 2 3 4 5 6 7 8 9 10 11 12 13
000
FTUS44 KAMA 221100
TAFDHT
TAF
KDHT 221120Z 2212/2312 20010KT P6SM SCT120
     FM221600 19016G23KT P6SM SCT080
     FM222200 19020G29KT P6SM VCTS BKN080CB
     FM230200 20011KT P6SM SCT080=

USA.gov is the U.S. government's official web portal to all federal, state and local government web resources and services.